Sealyon — 2CGJ2 — position and weather

sailwx.info

Track history (hours):
 
Tides and Currents Weather Stations Pressure Air Temp Water Temp Dewpoint Dewpoint Depression Visibility Wind Speed Wind Dir Waves Ship Positions

Sealyon

Last reported at 2016-Jun-29 12:18 UTC. Time now 2016-Jun-30 06:58 UTC.
Position N 43°16' E 006°38'.

Length 62 m; draft 3.3 m.

Type: Pleasure craft. MMSI: 235072538.

Date/timePositionNaut miles runAvg speedWind from/ knotsBaromVisibWave heightAir tempDewpointWater temp
2016-Jun-29 12:18N 43°16' E 006°38'14 2.1
2016-Jun-29 05:29N 43°08' E 006°54'  
2016-Jun-22 18:19N 43°06' E 007°05'18 3.7
2016-Jun-22 13:20N 43°12' E 006°41'0 0.0
2016-Jun-22 12:33N 43°12' E 006°41'0 0.0
2016-Jun-22 11:33N 43°12' E 006°41'5 0.1
2016-Jun-21 02:29N 43°16' E 006°38'0 0.0
2016-Jun-21 01:34N 43°16' E 006°38'0 0.0
2016-Jun-21 00:33N 43°16' E 006°38'0 0.0
2016-Jun-20 23:33N 43°16' E 006°38'0 0.0
2016-Jun-20 22:33N 43°16' E 006°38'18 0.7
2016-Jun-19 21:29N 43°26' E 006°59'6 3.0
2016-Jun-19 19:25N 43°32' E 007°03'0 0.0
2016-Jun-19 18:32N 43°32' E 007°03'0 0.0
2016-Jun-19 17:21N 43°32' E 007°03'0 0.0
2016-Jun-19 16:33N 43°32' E 007°03'0 0.0
2016-Jun-19 15:31N 43°32' E 007°03'0 0.0
2016-Jun-19 13:23N 43°32' E 007°03'0 0.0
2016-Jun-19 12:33N 43°32' E 007°03'  
Track history (hours):
 
Tides and Currents Weather Stations Pressure Air Temp Water Temp Dewpoint Dewpoint Depression Visibility Wind Speed Wind Dir Waves Ship Positions

Sealyon

Last reported at 2016-Jun-29 12:18 UTC. Time now 2016-Jun-30 06:58 UTC.
Position N 43°16' E 006°38'.

Length 62 m; draft 3.3 m.

Type: Pleasure craft. MMSI: 235072538.

Date/timePositionNaut miles runAvg speedWind from/ knotsBaromVisibWave heightAir tempDewpointWater temp
2016-Jun-29 12:18N 43°16' E 006°38'14 2.1
2016-Jun-29 05:29N 43°08' E 006°54'  
2016-Jun-22 18:19N 43°06' E 007°05'18 3.7
2016-Jun-22 13:20N 43°12' E 006°41'0 0.0
2016-Jun-22 12:33N 43°12' E 006°41'0 0.0
2016-Jun-22 11:33N 43°12' E 006°41'5 0.1
2016-Jun-21 02:29N 43°16' E 006°38'0 0.0
2016-Jun-21 01:34N 43°16' E 006°38'0 0.0
2016-Jun-21 00:33N 43°16' E 006°38'0 0.0
2016-Jun-20 23:33N 43°16' E 006°38'0 0.0
2016-Jun-20 22:33N 43°16' E 006°38'18 0.7
2016-Jun-19 21:29N 43°26' E 006°59'6 3.0
2016-Jun-19 19:25N 43°32' E 007°03'0 0.0
2016-Jun-19 18:32N 43°32' E 007°03'0 0.0
2016-Jun-19 17:21N 43°32' E 007°03'0 0.0
2016-Jun-19 16:33N 43°32' E 007°03'0 0.0
2016-Jun-19 15:31N 43°32' E 007°03'0 0.0
2016-Jun-19 13:23N 43°32' E 007°03'0 0.0
2016-Jun-19 12:33N 43°32' E 007°03'  

Dump ship's entire track history